Linden, MI (48451)

6:30 PM EDT on May 22, 2017 (GMT -0400)
Chestnut Grove | | Change Station

Elev 872 ft 42.81 °N, 83.80 °W | Updated 35 seconds ago

Partly Cloudy
Partly Cloudy
67.9 °F
Feels Like 67.9 °F
N
4.0
Wind Variable Wind from NW
Gusts 4.0 mph

Today
High -- | Low -- °F
--% Chance of Precip.
Yesterday
High -- | Low -- °F
Precip. -- in
Pressure 29.94 in
Visibility 10.0 miles
Clouds Few 6000 ft
Dew Point 49 °F
Humidity 51%
Rainfall 0.00 in
Snow Depth Not available.
6:05 AM 8:58 PM
Waning Crescent, 12% visible
METAR KFNT 222153Z 26016G20KT 10SM FEW060 20/06 A2994 RMK AO2 SLP138 T02000061 $
Pressure 29.94 in
Visibility 10.0 miles
Clouds Few 6000 ft
Dew Point 49 °F
Humidity 51%
Rainfall 0.00 in
Snow Depth Not available.
6:05 AM 8:58 PM
Waning Crescent, 12% visible
METAR KFNT 222153Z 26016G20KT 10SM FEW060 20/06 A2994 RMK AO2 SLP138 T02000061 $

Get Severe Weather Alerts

Thanks for signing up!

Be on the lookout for a verification email in your inbox.

You'll start receiving the daily forecast at 6 AM.

×

10-Day Weather Forecast

Almanac

Astronomy

May. 22, 2017 Rise Set
Actual Time
Civil Twilight
Nautical Twilight
Astronomical Twilight
Moon
Length of Visible Light
Length of Day
Tomorrow will be .
, % of the Moon is Illuminated

Today's Extremes

State Highs State Lows

Community

WunderPhotos

Category 6

Welcome to Category 6. This is the collective home for Weather Underground's featured writeups by Dr. Jeff Masters (right), Bob Henson (left), Chris Burt, and other regular contributors.

Nearby

Air Quality

  Air Quality AQ Index Pollutant
Not available.

Snow Depth

Station Depth Elevation

Earthquake Activity

City Distance Mag. Time & Date
Minimum magnitude displayed is 2.5.

Coastal Water Temperatures

Place Temperature

Stations

Nearby Weather Stations

Station Location Temp. Windchill Dew Point Humidity Wind Precip. Elev Updated Type
                   

Watches & Warnings

There are currently no watches in effect.